createdAt,value
2022-11-20T00:01:33.830Z,97754.03
2022-11-20T00:04:02.121Z,97760.88
2022-11-20T00:06:30.200Z,97758.28
2022-11-20T00:09:01.396Z,97754.03
2022-11-20T00:11:31.132Z,97741.28
2022-11-20T00:14:01.419Z,97742.94
2022-11-20T00:16:32.568Z,97741.22
2022-11-20T00:19:00.223Z,97737.88
2022-11-20T00:21:29.862Z,97735.28
2022-11-20T00:23:58.540Z,97742.09
2022-11-20T00:26:28.246Z,97734.50
2022-11-20T00:28:59.383Z,97734.63
2022-11-20T00:31:27.626Z,97733.72
2022-11-20T00:33:55.185Z,97735.50
2022-11-20T00:36:26.356Z,97725.38
2022-11-20T00:38:56.801Z,97732.91
2022-11-20T00:41:25.603Z,97729.47
2022-11-20T00:43:54.905Z,97732.81
2022-11-20T00:46:26.636Z,97736.41
2022-11-20T00:48:54.325Z,97730.38
2022-11-20T00:51:26.353Z,97736.31
2022-11-20T00:53:58.052Z,97725.34
2022-11-20T00:56:25.352Z,97730.38
2022-11-20T00:58:52.848Z,97724.69
2022-11-20T01:01:26.388Z,97723.91
2022-11-20T01:03:56.928Z,97718.75
2022-11-20T01:06:30.532Z,97714.81
2022-11-20T01:09:02.558Z,97712.13
2022-11-20T01:11:33.634Z,97709.59
2022-11-20T01:14:03.821Z,97713.06
2022-11-20T01:16:36.663Z,97710.47
2022-11-20T01:19:08.549Z,97715.44
2022-11-20T01:21:39.710Z,97711.22
2022-11-20T01:24:12.299Z,97703.59
2022-11-20T01:26:42.210Z,97705.19
2022-11-20T01:29:29.926Z,97698.50
2022-11-20T01:31:57.161Z,97700.94
2022-11-20T01:34:24.823Z,97700.03
2022-11-20T01:36:53.951Z,97699.22
2022-11-20T01:39:27.423Z,97683.00
2022-11-20T01:42:15.265Z,97682.97
2022-11-20T01:44:58.940Z,97677.91
2022-11-20T01:47:40.729Z,97678.78
2022-11-20T01:50:29.970Z,97675.31
2022-11-20T01:53:09.593Z,97672.00
2022-11-20T01:55:44.926Z,97668.72
2022-11-20T01:58:13.950Z,97672.94
2022-11-20T02:00:42.173Z,97678.97
2022-11-20T02:03:16.686Z,97683.41
2022-11-20T02:06:00.416Z,97685.13
2022-11-20T02:08:29.997Z,97688.78
2022-11-20T02:10:57.739Z,97687.91
2022-11-20T02:13:57.522Z,97688.09
2022-11-20T02:16:40.350Z,97691.66
2022-11-20T02:19:24.578Z,97689.84
2022-11-20T02:22:38.324Z,97693.19
2022-11-20T02:25:09.036Z,97699.19
2022-11-20T02:27:37.381Z,97699.06
2022-11-20T02:30:09.014Z,97699.03
2022-11-20T02:32:39.260Z,97707.50
2022-11-20T02:35:21.456Z,97716.81
2022-11-20T02:37:53.937Z,97714.28
2022-11-20T02:40:21.240Z,97716.63
2022-11-20T02:42:49.124Z,97715.84
2022-11-20T02:45:16.284Z,97720.97
2022-11-20T02:47:43.766Z,97714.19
2022-11-20T02:50:11.505Z,97714.31
2022-11-20T02:52:39.042Z,97705.81
2022-11-20T02:55:07.118Z,97710.94
2022-11-20T02:57:34.774Z,97705.97
2022-11-20T03:00:02.396Z,97704.25
2022-11-20T03:02:34.010Z,97701.84
2022-11-20T03:05:01.268Z,97706.88
2022-11-20T03:07:28.886Z,97705.22
2022-11-20T03:09:56.213Z,97694.97
2022-11-20T03:12:23.664Z,97699.16
2022-11-20T03:14:53.299Z,97700.81
2022-11-20T03:17:21.104Z,97699.94
2022-11-20T03:19:48.322Z,97705.78
2022-11-20T03:22:16.055Z,97701.50
2022-11-20T03:24:43.304Z,97704.94
2022-11-20T03:27:10.992Z,97705.72
2022-11-20T03:29:38.142Z,97710.88
2022-11-20T03:32:06.357Z,97706.53
2022-11-20T03:34:33.569Z,97700.63
2022-11-20T03:37:01.072Z,97697.16
2022-11-20T03:39:28.308Z,97696.28
2022-11-20T03:41:55.836Z,97699.63
2022-11-20T03:44:23.403Z,97702.13
2022-11-20T03:46:50.837Z,97703.03
2022-11-20T03:49:18.066Z,97707.16
2022-11-20T03:51:45.520Z,97707.16
2022-11-20T03:54:12.681Z,97699.47
2022-11-20T03:56:40.618Z,97711.34
2022-11-20T03:59:08.041Z,97706.28
2022-11-20T04:01:38.643Z,97709.66
2022-11-20T04:04:06.954Z,97714.81
2022-11-20T04:06:39.140Z,97708.91
2022-11-20T04:09:07.320Z,97698.94
2022-11-20T04:11:40.368Z,97695.56
2022-11-20T04:14:14.426Z,97696.47
2022-11-20T04:16:42.417Z,97693.19
2022-11-20T04:19:16.035Z,97678.72
2022-11-20T04:21:45.086Z,97681.16
2022-11-20T04:24:12.603Z,97681.09
2022-11-20T04:26:41.395Z,97682.72
2022-11-20T04:29:12.873Z,97679.28
2022-11-20T04:31:40.481Z,97671.59
2022-11-20T04:34:08.830Z,97672.41
2022-11-20T04:36:36.386Z,97670.88
2022-11-20T04:39:07.271Z,97671.75
2022-11-20T04:41:37.682Z,97673.34
2022-11-20T04:44:07.289Z,97667.41
2022-11-20T04:46:39.418Z,97669.91
2022-11-20T04:49:07.665Z,97664.81
2022-11-20T04:51:35.822Z,97667.38
2022-11-20T04:54:03.318Z,97665.69
2022-11-20T04:56:30.982Z,97659.75
2022-11-20T04:59:02.802Z,97650.41
2022-11-20T05:01:31.156Z,97657.25
2022-11-20T05:03:58.418Z,97651.31
2022-11-20T05:06:26.734Z,97652.25
2022-11-20T05:08:53.884Z,97653.91
2022-11-20T05:11:22.696Z,97645.53
2022-11-20T05:13:52.347Z,97643.81
2022-11-20T05:16:25.346Z,97651.53
2022-11-20T05:18:55.877Z,97646.41
2022-11-20T05:21:24.047Z,97641.41
2022-11-20T05:23:51.279Z,97644.09
2022-11-20T05:26:23.646Z,97629.19
2022-11-20T05:28:52.817Z,97626.06
2022-11-20T05:31:27.715Z,97634.50
2022-11-20T05:33:58.229Z,97633.88
2022-11-20T05:36:26.150Z,97632.00
2022-11-20T05:38:58.111Z,97630.75
2022-11-20T05:41:29.325Z,97630.50
2022-11-20T05:43:58.952Z,97615.19
2022-11-20T05:46:29.022Z,97624.53
2022-11-20T05:48:58.814Z,97620.25
2022-11-20T05:51:27.197Z,97622.75
2022-11-20T05:53:54.617Z,97625.38
2022-11-20T05:56:23.477Z,97624.38
2022-11-20T05:58:51.015Z,97632.00
2022-11-20T06:01:25.857Z,97622.66
2022-11-20T06:03:55.281Z,97620.84
2022-11-20T06:06:23.894Z,97618.50
2022-11-20T06:08:51.287Z,97619.34
2022-11-20T06:11:19.690Z,97618.25
2022-11-20T06:13:47.932Z,97625.78
2022-11-20T06:16:19.919Z,97630.94
2022-11-20T06:18:48.074Z,97638.50
2022-11-20T06:21:22.405Z,97635.22
2022-11-20T06:23:51.547Z,97631.72
2022-11-20T06:26:25.979Z,97628.34
2022-11-20T06:28:54.172Z,97624.13
2022-11-20T06:31:25.761Z,97629.88
2022-11-20T06:33:53.999Z,97636.63
2022-11-20T06:36:23.986Z,97637.28
2022-11-20T06:38:51.852Z,97632.13
2022-11-20T06:41:23.796Z,97620.06
2022-11-20T06:43:51.434Z,97621.53
2022-11-20T06:46:21.546Z,97610.31
2022-11-20T06:48:50.238Z,97605.75
2022-11-20T06:51:18.059Z,97611.38
2022-11-20T06:53:45.419Z,97604.34
2022-11-20T06:56:12.896Z,97609.25
2022-11-20T06:58:40.267Z,97601.25
2022-11-20T07:01:12.361Z,97605.38
2022-11-20T07:03:41.233Z,97605.84
2022-11-20T07:06:10.014Z,97598.13
2022-11-20T07:08:37.702Z,97597.63
2022-11-20T07:11:08.482Z,97600.69
2022-11-20T07:13:36.021Z,97599.72
2022-11-20T07:16:07.372Z,97601.19
2022-11-20T07:18:34.833Z,97586.44
2022-11-20T07:21:11.676Z,97594.63
2022-11-20T07:23:39.376Z,97587.34
2022-11-20T07:26:10.084Z,97596.34
2022-11-20T07:28:38.558Z,97595.38
2022-11-20T07:31:08.473Z,97601.69
2022-11-20T07:33:35.708Z,97596.28
2022-11-20T07:36:03.838Z,97600.47
2022-11-20T07:38:31.282Z,97606.25
2022-11-20T07:40:59.309Z,97598.00
2022-11-20T07:43:26.829Z,97592.63
2022-11-20T07:45:57.930Z,97597.16
2022-11-20T07:48:26.497Z,97602.34
2022-11-20T07:50:58.131Z,97601.34
2022-11-20T07:53:25.962Z,97609.88
2022-11-20T07:55:53.631Z,97612.44
2022-11-20T07:58:22.617Z,97610.03
2022-11-20T08:00:50.449Z,97614.97
2022-11-20T08:03:21.833Z,97619.84
2022-11-20T08:05:52.664Z,97622.56
2022-11-20T08:08:19.918Z,97615.75
2022-11-20T08:10:47.353Z,97612.75
2022-11-20T08:13:33.150Z,97617.38
2022-11-20T08:16:00.613Z,97617.16
2022-11-20T08:18:32.458Z,97619.75
2022-11-20T08:21:05.044Z,97619.78
2022-11-20T08:23:32.578Z,97627.31
2022-11-20T08:26:00.100Z,97632.81
2022-11-20T08:28:27.302Z,97635.28
2022-11-20T08:31:03.196Z,97629.56
2022-11-20T08:33:31.167Z,97635.09
2022-11-20T08:36:04.442Z,97630.66
2022-11-20T08:38:33.150Z,97640.06
2022-11-20T08:41:22.513Z,97639.75
2022-11-20T08:43:55.497Z,97640.75
2022-11-20T08:46:25.962Z,97641.59
2022-11-20T08:48:53.885Z,97646.28
2022-11-20T08:51:21.884Z,97638.84
2022-11-20T08:53:52.031Z,97634.84
2022-11-20T08:56:19.737Z,97645.91
2022-11-20T08:59:18.003Z,97631.03
2022-11-20T09:01:34.573Z,97632.44
2022-11-20T09:04:01.775Z,97633.22
2022-11-20T09:06:29.396Z,97629.72
2022-11-20T09:09:00.767Z,97621.50
2022-11-20T09:11:31.159Z,97631.47
2022-11-20T09:13:58.544Z,97622.41
2022-11-20T09:16:26.129Z,97618.81
2022-11-20T09:19:07.209Z,97624.50
2022-11-20T09:21:41.005Z,97622.06
2022-11-20T09:24:08.469Z,97618.25
2022-11-20T09:26:36.850Z,97633.97
2022-11-20T09:29:04.111Z,97627.28
2022-11-20T09:31:31.607Z,97626.63
2022-11-20T09:33:58.865Z,97626.53
2022-11-20T09:36:26.432Z,97626.88
2022-11-20T09:38:53.803Z,97623.44
2022-11-20T09:41:42.369Z,97629.34
2022-11-20T09:44:37.009Z,97619.25
2022-11-20T09:47:34.979Z,97620.81
2022-11-20T09:51:16.065Z,97614.53
2022-11-20T09:54:19.580Z,97608.13
2022-11-20T09:57:00.538Z,97605.22
2022-11-20T09:59:43.637Z,97600.38
2022-11-20T10:02:25.612Z,97590.19
2022-11-20T10:05:19.265Z,97598.47
2022-11-20T10:08:22.728Z,97605.94
2022-11-20T10:11:24.858Z,97600.91
2022-11-20T10:14:30.311Z,97593.66
2022-11-20T10:17:11.583Z,97595.19
2022-11-20T10:20:21.066Z,97587.97
2022-11-20T10:23:25.773Z,97574.41
2022-11-20T10:26:13.906Z,97576.66
2022-11-20T10:29:00.592Z,97579.25
2022-11-20T10:31:34.530Z,97582.16
2022-11-20T10:34:22.770Z,97572.31
2022-11-20T10:37:06.926Z,97562.91
2022-11-20T10:40:01.914Z,97559.38
2022-11-20T10:42:58.531Z,97557.56
2022-11-20T10:45:26.149Z,97557.13
2022-11-20T10:48:13.310Z,97557.72
2022-11-20T10:50:56.069Z,97550.50
2022-11-20T10:53:56.926Z,97547.84
2022-11-20T10:56:52.223Z,97538.44
2022-11-20T10:59:32.363Z,97540.84
2022-11-20T11:04:48.639Z,97538.28
2022-11-20T11:07:31.726Z,97537.66
2022-11-20T11:09:59.125Z,97526.72
2022-11-20T11:12:30.239Z,97520.03
2022-11-20T11:14:58.819Z,97507.88
2022-11-20T11:17:30.651Z,97505.41
2022-11-20T11:20:21.755Z,97517.72
2022-11-20T11:22:59.304Z,97513.41
2022-11-20T11:25:34.695Z,97511.31
2022-11-20T11:28:06.253Z,97512.47
2022-11-20T11:30:45.707Z,97510.25
2022-11-20T11:33:31.828Z,97521.13
2022-11-20T11:36:17.022Z,97517.31
2022-11-20T11:38:45.395Z,97529.06
2022-11-20T11:41:29.058Z,97522.81
2022-11-20T11:44:37.064Z,97520.06
2022-11-20T11:47:10.915Z,97518.06
2022-11-20T11:49:38.601Z,97512.13
2022-11-20T11:52:23.661Z,97514.69
2022-11-20T11:55:07.087Z,97497.53
2022-11-20T11:58:01.860Z,97500.38
2022-11-20T12:00:29.813Z,97491.13
2022-11-20T12:03:22.715Z,97491.47
2022-11-20T12:06:02.785Z,97508.69
2022-11-20T12:08:45.155Z,97498.47
2022-11-20T12:11:24.258Z,97493.84
2022-11-20T12:13:59.530Z,97486.50
2022-11-20T12:16:27.096Z,97495.06
2022-11-20T12:18:54.835Z,97496.78
2022-11-20T12:21:25.545Z,97486.53
2022-11-20T12:24:22.698Z,97478.78
2022-11-20T12:27:54.303Z,97471.63
2022-11-20T12:30:24.095Z,97462.50
2022-11-20T12:33:27.067Z,97460.22
2022-11-20T12:36:27.212Z,97441.19
2022-11-20T12:39:12.916Z,97435.72
2022-11-20T12:42:21.493Z,97430.75
2022-11-20T12:45:45.210Z,97427.13
2022-11-20T12:48:31.035Z,97424.88
2022-11-20T12:51:33.031Z,97424.31
2022-11-20T12:54:35.545Z,97422.66
2022-11-20T12:57:22.916Z,97419.44
2022-11-20T13:00:18.166Z,97426.34
2022-11-20T13:03:46.768Z,97427.91
2022-11-20T13:06:19.984Z,97429.19
2022-11-20T13:08:57.809Z,97415.34
2022-11-20T13:11:42.844Z,97422.91
2022-11-20T13:14:28.011Z,97421.59
2022-11-20T13:17:29.755Z,97416.47
2022-11-20T13:20:01.822Z,97417.66
2022-11-20T13:22:52.834Z,97407.59
2022-11-20T13:25:39.140Z,97412.72
2022-11-20T13:28:31.216Z,97407.09
2022-11-20T13:31:00.133Z,97401.31
2022-11-20T13:33:38.550Z,97403.16
2022-11-20T13:36:24.173Z,97406.31
2022-11-20T13:38:57.420Z,97405.47
2022-11-20T13:41:36.524Z,97399.81
2022-11-20T13:44:11.365Z,97410.81
2022-11-20T13:46:45.648Z,97407.28
2022-11-20T13:49:45.852Z,97405.00
2022-11-20T13:52:51.959Z,97408.47
2022-11-20T13:55:55.548Z,97397.50
2022-11-20T13:58:45.093Z,97400.69
2022-11-20T14:01:24.098Z,97389.47
2022-11-20T14:04:09.361Z,97390.38
2022-11-20T14:06:47.687Z,97388.50
2022-11-20T14:09:27.743Z,97389.25
2022-11-20T14:11:55.095Z,97385.66
2022-11-20T14:14:26.994Z,97388.75
2022-11-20T14:17:21.590Z,97393.22
2022-11-20T14:19:52.288Z,97390.56
2022-11-20T14:22:28.906Z,97391.59
2022-11-20T14:25:28.236Z,97388.31
2022-11-20T14:28:04.120Z,97389.97
2022-11-20T14:30:47.661Z,97394.47
2022-11-20T14:33:16.358Z,97395.72
2022-11-20T14:35:55.486Z,97386.28
2022-11-20T14:38:30.344Z,97374.34
2022-11-20T14:41:18.965Z,97377.03
2022-11-20T14:43:59.822Z,97377.22
2022-11-20T14:46:28.791Z,97388.53
2022-11-20T14:49:01.337Z,97387.97
2022-11-20T14:51:44.016Z,97397.63
2022-11-20T14:54:26.520Z,97385.53
2022-11-20T14:56:59.853Z,97385.06
2022-11-20T14:59:33.305Z,97368.13
2022-11-20T15:02:11.724Z,97375.13
2022-11-20T15:05:00.340Z,97372.03
2022-11-20T15:07:38.572Z,97373.19
2022-11-20T15:10:32.665Z,97364.53
2022-11-20T15:13:13.040Z,97365.19
2022-11-20T15:15:53.528Z,97368.78
2022-11-20T15:18:33.647Z,97362.66
2022-11-20T15:21:07.299Z,97365.63
2022-11-20T15:23:35.635Z,97363.03
2022-11-20T15:26:02.913Z,97352.41
2022-11-20T15:28:51.312Z,97354.59
2022-11-20T15:31:24.480Z,97363.09
2022-11-20T15:33:52.346Z,97361.44
2022-11-20T15:36:19.615Z,97366.16
2022-11-20T15:38:47.594Z,97366.25
2022-11-20T15:41:17.258Z,97354.88
2022-11-20T15:43:44.970Z,97368.53
2022-11-20T15:46:22.668Z,97366.25
2022-11-20T15:48:56.308Z,97364.13
2022-11-20T15:51:38.050Z,97361.56
2022-11-20T15:54:22.490Z,97354.00
2022-11-20T15:56:53.483Z,97365.13
2022-11-20T15:59:21.577Z,97356.84
2022-11-20T16:01:48.871Z,97346.56
2022-11-20T16:04:19.370Z,97351.25
2022-11-20T16:06:46.719Z,97355.34
2022-11-20T16:09:14.312Z,97352.16
2022-11-20T16:11:41.606Z,97352.91
2022-11-20T16:14:30.426Z,97352.50
2022-11-20T16:16:57.617Z,97354.16
2022-11-20T16:19:25.085Z,97355.19
2022-11-20T16:21:52.441Z,97363.47
2022-11-20T16:24:20.557Z,97360.06
2022-11-20T16:26:48.035Z,97354.16
2022-11-20T16:29:16.033Z,97349.13
2022-11-20T16:31:43.254Z,97351.00
2022-11-20T16:34:12.509Z,97356.16
2022-11-20T16:36:45.889Z,97354.69
2022-11-20T16:39:19.036Z,97344.84
2022-11-20T16:41:49.373Z,97345.56
2022-11-20T16:44:17.076Z,97344.38
2022-11-20T16:46:46.246Z,97342.63
2022-11-20T16:49:15.333Z,97347.97
2022-11-20T16:51:43.252Z,97345.25
2022-11-20T16:54:13.950Z,97343.19
2022-11-20T16:56:43.884Z,97346.00
2022-11-20T16:59:11.696Z,97344.25
2022-11-20T17:01:40.561Z,97350.41
2022-11-20T17:04:08.329Z,97351.13
2022-11-20T17:06:40.452Z,97364.25
2022-11-20T17:09:11.183Z,97362.47
2022-11-20T17:11:38.798Z,97353.00
2022-11-20T17:14:09.907Z,97350.50
2022-11-20T17:16:38.396Z,97352.47
2022-11-20T17:19:06.467Z,97361.56
2022-11-20T17:21:39.419Z,97348.97
2022-11-20T17:24:13.255Z,97342.03
2022-11-20T17:26:43.294Z,97339.66
2022-11-20T17:29:17.499Z,97337.78
2022-11-20T17:31:45.539Z,97332.66
2022-11-20T17:34:15.808Z,97318.13
2022-11-20T17:36:47.159Z,97314.16
2022-11-20T17:39:17.080Z,97321.97
2022-11-20T17:41:45.129Z,97323.53
2022-11-20T17:44:13.549Z,97321.16
2022-11-20T17:46:41.253Z,97317.88
2022-11-20T17:49:08.893Z,97318.91
2022-11-20T17:51:36.246Z,97303.34
2022-11-20T17:54:09.511Z,97306.84
2022-11-20T17:56:55.624Z,97311.19
2022-11-20T17:59:23.420Z,97312.09
2022-11-20T18:01:50.795Z,97309.03
2022-11-20T18:04:18.608Z,97298.75
2022-11-20T18:06:46.335Z,97291.81
2022-11-20T18:09:13.958Z,97278.97
2022-11-20T18:11:43.060Z,97288.09
2022-11-20T18:14:28.950Z,97318.22
2022-11-20T18:17:09.548Z,97307.50
2022-11-20T18:19:51.612Z,97300.84
2022-11-20T18:22:23.513Z,97317.34
2022-11-20T18:24:50.983Z,97300.19
2022-11-20T18:27:21.930Z,97300.72
2022-11-20T18:29:52.101Z,97309.97
2022-11-20T18:32:21.978Z,97310.22
2022-11-20T18:34:51.482Z,97305.16
2022-11-20T18:37:19.691Z,97303.41
2022-11-20T18:39:47.390Z,97303.31
2022-11-20T18:42:35.570Z,97297.28
2022-11-20T18:45:05.148Z,97303.16
2022-11-20T18:47:37.630Z,97312.69
2022-11-20T18:50:08.668Z,97308.44
2022-11-20T18:52:44.641Z,97302.63
2022-11-20T18:55:12.968Z,97304.56
2022-11-20T18:57:40.351Z,97299.44
2022-11-20T19:00:09.916Z,97294.84
2022-11-20T19:02:42.222Z,97300.84
2022-11-20T19:05:15.227Z,97296.56
2022-11-20T19:07:43.383Z,97304.78
2022-11-20T19:10:11.276Z,97294.50
2022-11-20T19:12:38.944Z,97291.59
2022-11-20T19:15:07.221Z,97280.97
2022-11-20T19:17:34.748Z,97300.16
2022-11-20T19:20:02.323Z,97284.19
2022-11-20T19:22:29.767Z,97303.06
2022-11-20T19:24:57.341Z,97302.88
2022-11-20T19:27:24.567Z,97299.31
2022-11-20T19:29:52.259Z,97297.38
2022-11-20T19:32:19.806Z,97295.31
2022-11-20T19:34:47.445Z,97292.66
2022-11-20T19:37:14.896Z,97303.03
2022-11-20T19:39:42.483Z,97312.25
2022-11-20T19:42:09.763Z,97302.19
2022-11-20T19:44:37.389Z,97294.56
2022-11-20T19:47:08.909Z,97307.09
2022-11-20T19:49:41.877Z,97295.25
2022-11-20T19:52:09.493Z,97300.59
2022-11-20T19:54:37.184Z,97292.53
2022-11-20T19:57:04.400Z,97291.78
2022-11-20T19:59:32.071Z,97279.66
2022-11-20T20:01:59.537Z,97277.09
2022-11-20T20:04:27.611Z,97280.50
2022-11-20T20:06:55.099Z,97276.03
2022-11-20T20:09:24.015Z,97278.69
2022-11-20T20:11:51.411Z,97284.38
2022-11-20T20:14:19.318Z,97280.81
2022-11-20T20:16:46.750Z,97283.28
2022-11-20T20:19:16.555Z,97278.22
2022-11-20T20:21:44.490Z,97286.31
2022-11-20T20:24:12.610Z,97284.72
2022-11-20T20:26:40.202Z,97278.59
2022-11-20T20:29:08.227Z,97282.56
2022-11-20T20:31:36.208Z,97285.41
2022-11-20T20:34:05.529Z,97276.09
2022-11-20T20:36:33.330Z,97270.28
2022-11-20T20:39:02.833Z,97276.81
2022-11-20T20:41:30.657Z,97282.69
2022-11-20T20:44:16.731Z,97276.97
2022-11-20T20:46:43.977Z,97276.22
2022-11-20T20:49:11.559Z,97279.88
2022-11-20T20:51:38.798Z,97279.41
2022-11-20T20:54:06.550Z,97286.84
2022-11-20T20:56:33.958Z,97272.59
2022-11-20T20:59:01.709Z,97278.34
2022-11-20T21:01:29.724Z,97284.84
2022-11-20T21:03:57.811Z,97287.06
2022-11-20T21:06:25.796Z,97285.59
2022-11-20T21:08:53.735Z,97294.53
2022-11-20T21:11:21.661Z,97300.13
2022-11-20T21:13:49.886Z,97308.28
2022-11-20T21:16:20.622Z,97305.50
2022-11-20T21:18:48.839Z,97302.84
2022-11-20T21:21:36.395Z,97299.84
2022-11-20T21:24:04.468Z,97295.28
2022-11-20T21:26:31.821Z,97295.88
2022-11-20T21:28:59.530Z,97287.13
2022-11-20T21:31:28.798Z,97292.06
2022-11-20T21:33:57.426Z,97286.13
2022-11-20T21:36:28.841Z,97287.72
2022-11-20T21:38:59.519Z,97284.38
2022-11-20T21:41:30.284Z,97289.47
2022-11-20T21:46:47.826Z,97297.63
2022-11-20T21:49:16.968Z,97311.84
2022-11-20T21:51:44.234Z,97312.50
2022-11-20T21:54:11.864Z,97303.44
2022-11-20T21:56:39.368Z,97308.34
2022-11-20T21:59:06.856Z,97297.19
2022-11-20T22:01:34.889Z,97294.75
2022-11-20T22:04:03.246Z,97295.34
2022-11-20T22:06:33.662Z,97290.94
2022-11-20T22:09:02.833Z,97293.19
2022-11-20T22:11:30.500Z,97301.59
2022-11-20T22:14:16.966Z,97298.84
2022-11-20T22:16:44.180Z,97300.78
2022-11-20T22:19:12.139Z,97301.31
2022-11-20T22:21:40.693Z,97310.56
2022-11-20T22:24:12.610Z,97323.19
2022-11-20T22:26:40.825Z,97314.91
2022-11-20T22:29:14.844Z,97317.72
2022-11-20T22:31:42.503Z,97315.84
2022-11-20T22:34:13.107Z,97310.25
2022-11-20T22:36:41.271Z,97302.25
2022-11-20T22:39:09.201Z,97298.94
2022-11-20T22:41:36.403Z,97307.28
2022-11-20T22:44:08.801Z,97297.47
2022-11-20T22:46:38.491Z,97313.09
2022-11-20T22:49:11.025Z,97317.25
2022-11-20T22:51:41.362Z,97311.44
2022-11-20T22:54:12.348Z,97325.84
2022-11-20T22:56:40.658Z,97321.59
2022-11-20T22:59:08.249Z,97326.25
2022-11-20T23:01:37.324Z,97328.59
2022-11-20T23:04:10.234Z,97326.47
2022-11-20T23:06:37.628Z,97325.06
2022-11-20T23:09:06.657Z,97320.38
2022-11-20T23:11:35.339Z,97320.56
2022-11-20T23:14:12.775Z,97321.09
2022-11-20T23:16:40.459Z,97325.34
2022-11-20T23:19:11.760Z,97325.00
2022-11-20T23:21:41.539Z,97325.00
2022-11-20T23:24:10.161Z,97326.69
2022-11-20T23:26:40.668Z,97330.63
2022-11-20T23:29:08.849Z,97330.25
2022-11-20T23:31:36.657Z,97339.28
2022-11-20T23:34:04.863Z,97332.44
2022-11-20T23:36:32.454Z,97334.75
2022-11-20T23:38:59.948Z,97332.63
2022-11-20T23:41:27.280Z,97333.38
2022-11-20T23:43:55.151Z,97315.78
2022-11-20T23:46:22.699Z,97315.88
2022-11-20T23:48:50.135Z,97311.53
2022-11-20T23:51:18.107Z,97312.13
2022-11-20T23:53:45.822Z,97313.03
2022-11-20T23:56:16.187Z,97312.00
2022-11-20T23:58:43.966Z,97318.00
